createdAt,value
2023-02-14T00:01:00.440Z,3.13
2023-02-14T00:05:05.334Z,3.17
2023-02-14T00:09:13.571Z,3.13
2023-02-14T00:13:16.820Z,3.13
2023-02-14T00:17:19.892Z,3.08
2023-02-14T00:21:24.536Z,3.01
2023-02-14T00:25:27.903Z,2.94
2023-02-14T00:29:33.250Z,2.85
2023-02-14T00:33:36.766Z,2.74
2023-02-14T00:37:41.247Z,2.66
2023-02-14T00:41:45.380Z,2.55
2023-02-14T00:45:48.522Z,2.52
2023-02-14T00:49:51.881Z,2.51
2023-02-14T00:53:56.938Z,2.50
2023-02-14T00:57:59.810Z,2.46
2023-02-14T01:02:03.076Z,2.38
2023-02-14T01:06:07.808Z,2.30
2023-02-14T01:10:12.968Z,2.22
2023-02-14T01:14:16.015Z,2.13
2023-02-14T01:18:21.284Z,2.04
2023-02-14T01:22:24.323Z,1.93
2023-02-14T01:26:30.605Z,1.85
2023-02-14T01:30:33.939Z,1.74
2023-02-14T01:34:38.119Z,1.68
2023-02-14T01:38:41.214Z,1.65
2023-02-14T01:42:46.660Z,1.63
2023-02-14T01:46:49.887Z,1.59
2023-02-14T01:50:56.288Z,1.54
2023-02-14T01:55:02.353Z,1.47
2023-02-14T01:59:12.812Z,1.40
2023-02-14T02:03:18.402Z,1.32
2023-02-14T02:07:25.496Z,1.30
2023-02-14T02:11:29.584Z,1.28
2023-02-14T02:15:43.486Z,1.33
2023-02-14T02:20:25.628Z,1.43
2023-02-14T02:24:37.263Z,1.52
2023-02-14T02:29:05.370Z,1.63
2023-02-14T02:34:00.413Z,1.72
2023-02-14T02:38:23.106Z,1.81
2023-02-14T02:42:55.645Z,1.90
2023-02-14T02:47:08.114Z,1.97
2023-02-14T02:51:31.179Z,2.06
2023-02-14T02:56:09.155Z,2.12
2023-02-14T03:00:15.916Z,2.12
2023-02-14T03:04:38.531Z,2.13
2023-02-14T03:08:41.639Z,2.19
2023-02-14T03:13:09.980Z,2.20
2023-02-14T03:17:25.493Z,2.23
2023-02-14T03:21:36.963Z,2.25
2023-02-14T03:25:48.363Z,2.32
2023-02-14T03:29:59.298Z,2.38
2023-02-14T03:34:08.575Z,2.42
2023-02-14T03:38:17.075Z,2.47
2023-02-14T03:42:24.898Z,2.52
2023-02-14T03:46:35.533Z,2.58
2023-02-14T03:50:43.324Z,2.62
2023-02-14T03:54:49.269Z,2.64
2023-02-14T03:58:55.933Z,2.61
2023-02-14T04:03:06.319Z,2.59
2023-02-14T04:07:12.754Z,2.55
2023-02-14T04:11:16.587Z,2.52
2023-02-14T04:15:19.706Z,2.50
2023-02-14T04:19:24.458Z,2.51
2023-02-14T04:23:28.077Z,2.52
2023-02-14T04:27:31.123Z,2.55
2023-02-14T04:31:34.451Z,2.59
2023-02-14T04:35:39.787Z,2.66
2023-02-14T04:39:43.129Z,2.68
2023-02-14T04:43:46.900Z,2.70
2023-02-14T04:47:50.363Z,2.70
2023-02-14T04:51:58.233Z,2.72
2023-02-14T04:56:01.502Z,2.76
2023-02-14T05:00:05.203Z,2.80
2023-02-14T05:04:10.620Z,2.87
2023-02-14T05:08:16.182Z,2.94
2023-02-14T05:12:19.613Z,2.98
2023-02-14T05:16:23.076Z,3.07
2023-02-14T05:20:26.902Z,3.13
2023-02-14T05:24:31.278Z,3.16
2023-02-14T05:28:35.416Z,3.19
2023-02-14T05:32:38.549Z,3.23
2023-02-14T05:36:41.969Z,3.23
2023-02-14T05:40:48.386Z,3.24
2023-02-14T05:44:51.600Z,3.23
2023-02-14T05:48:54.770Z,3.23
2023-02-14T05:52:58.445Z,3.20
2023-02-14T05:57:02.854Z,3.18
2023-02-14T06:01:06.593Z,3.14
2023-02-14T06:05:10.071Z,3.13
2023-02-14T06:09:13.308Z,3.09
2023-02-14T06:13:19.491Z,3.08
2023-02-14T06:17:22.348Z,3.04
2023-02-14T06:21:25.586Z,3.02
2023-02-14T06:25:28.623Z,2.99
2023-02-14T06:29:33.441Z,2.96
2023-02-14T06:33:36.524Z,2.94
2023-02-14T06:37:41.678Z,2.92
2023-02-14T06:41:44.888Z,2.91
2023-02-14T06:45:50.095Z,2.91
2023-02-14T06:49:53.621Z,2.93
2023-02-14T06:53:56.997Z,2.95
2023-02-14T06:58:00.490Z,2.96
2023-02-14T07:02:04.938Z,3.00
2023-02-14T07:06:08.955Z,3.00
2023-02-14T07:10:12.608Z,3.04
2023-02-14T07:14:15.887Z,3.06
2023-02-14T07:18:20.311Z,3.10
2023-02-14T07:22:23.901Z,3.14
2023-02-14T07:26:26.918Z,3.20
2023-02-14T07:30:30.122Z,3.25
2023-02-14T07:34:35.459Z,3.31
2023-02-14T07:38:38.762Z,3.36
2023-02-14T07:42:42.071Z,3.41
2023-02-14T07:46:45.264Z,3.45
2023-02-14T07:50:51.159Z,3.49
2023-02-14T07:54:54.783Z,3.52
2023-02-14T07:58:58.244Z,3.57
2023-02-14T08:03:02.505Z,3.60
2023-02-14T08:07:07.163Z,3.63
2023-02-14T08:11:10.802Z,3.67
2023-02-14T08:15:30.883Z,3.75
2023-02-14T08:19:35.074Z,3.82
2023-02-14T08:23:40.109Z,3.88
2023-02-14T08:27:43.509Z,3.94
2023-02-14T08:31:47.569Z,3.99
2023-02-14T08:35:52.399Z,4.04
2023-02-14T08:39:57.370Z,4.08
2023-02-14T08:44:00.834Z,4.09
2023-02-14T08:48:06.382Z,4.13
2023-02-14T08:52:09.734Z,4.16
2023-02-14T08:56:16.214Z,4.21
2023-02-14T09:00:20.463Z,4.23
2023-02-14T09:04:36.498Z,4.28
2023-02-14T09:08:41.012Z,4.30
2023-02-14T09:12:45.769Z,4.34
2023-02-14T09:16:49.585Z,4.37
2023-02-14T09:20:53.161Z,4.40
2023-02-14T09:24:56.025Z,4.44
2023-02-14T09:29:00.877Z,4.49
2023-02-14T09:33:06.176Z,4.54
2023-02-14T09:37:28.926Z,4.64
2023-02-14T09:41:46.675Z,4.78
2023-02-14T09:45:56.194Z,4.86
2023-02-14T09:50:00.535Z,4.85
2023-02-14T09:54:10.485Z,4.87
2023-02-14T09:58:19.228Z,4.95
2023-02-14T10:02:42.284Z,5.05
2023-02-14T10:06:50.888Z,5.19
2023-02-14T10:11:04.371Z,5.33
2023-02-14T10:15:16.388Z,5.48
2023-02-14T10:19:25.430Z,5.60
2023-02-14T10:23:33.989Z,5.73
2023-02-14T10:27:42.557Z,5.84
2023-02-14T10:31:56.468Z,5.94
2023-02-14T10:36:05.822Z,6.05
2023-02-14T10:40:29.281Z,6.13
2023-02-14T10:44:44.041Z,6.21
2023-02-14T10:48:57.985Z,6.27
2023-02-14T10:53:15.361Z,6.35
2023-02-14T10:57:26.740Z,6.41
2023-02-14T11:01:30.251Z,6.45
2023-02-14T11:05:38.127Z,6.52
2023-02-14T11:09:42.728Z,6.60
2023-02-14T11:13:48.632Z,6.67
2023-02-14T11:18:09.421Z,6.75
2023-02-14T11:22:29.986Z,6.82
2023-02-14T11:26:36.927Z,6.89
2023-02-14T11:30:43.249Z,6.96
2023-02-14T11:34:49.559Z,7.03
2023-02-14T11:38:59.419Z,7.10
2023-02-14T11:43:30.255Z,7.17
2023-02-14T11:47:37.952Z,7.23
2023-02-14T11:51:46.341Z,7.24
2023-02-14T11:55:53.832Z,7.22
2023-02-14T11:59:59.838Z,7.20
2023-02-14T12:04:09.112Z,7.20
2023-02-14T12:08:12.862Z,7.19
2023-02-14T12:12:23.652Z,7.21
2023-02-14T12:16:36.887Z,7.23
2023-02-14T12:20:43.653Z,7.25
2023-02-14T12:24:54.358Z,7.27
2023-02-14T12:29:04.421Z,7.31
2023-02-14T12:33:19.775Z,7.33
2023-02-14T12:37:38.543Z,7.34
2023-02-14T12:41:53.247Z,7.34
2023-02-14T12:46:08.531Z,7.34
2023-02-14T12:50:29.115Z,7.33
2023-02-14T12:54:51.414Z,7.34
2023-02-14T12:59:04.620Z,7.37
2023-02-14T13:03:35.674Z,7.39
2023-02-14T13:07:57.444Z,7.39
2023-02-14T13:12:13.984Z,7.42
2023-02-14T13:16:25.367Z,7.42
2023-02-14T13:20:42.784Z,7.43
2023-02-14T13:24:50.598Z,7.43
2023-02-14T13:28:58.987Z,7.43
2023-02-14T13:33:08.916Z,7.45
2023-02-14T13:37:16.922Z,7.47
2023-02-14T13:41:23.914Z,7.47
2023-02-14T13:45:54.853Z,7.45
2023-02-14T13:50:01.066Z,7.40
2023-02-14T13:54:21.374Z,7.34
2023-02-14T13:58:26.637Z,7.30
2023-02-14T14:02:43.019Z,7.25
2023-02-14T14:07:22.540Z,7.19
2023-02-14T14:12:00.169Z,7.10
2023-02-14T14:16:28.964Z,7.02
2023-02-14T14:20:42.928Z,6.96
2023-02-14T14:24:57.738Z,6.89
2023-02-14T14:29:00.763Z,6.80
2023-02-14T14:33:16.087Z,6.72
2023-02-14T14:37:22.996Z,6.63
2023-02-14T14:41:31.452Z,6.55
2023-02-14T14:45:34.775Z,6.45
2023-02-14T14:49:39.285Z,6.42
2023-02-14T14:53:50.137Z,6.37
2023-02-14T14:57:54.911Z,6.33
2023-02-14T15:01:58.740Z,6.28
2023-02-14T15:06:17.633Z,6.22
2023-02-14T15:10:25.630Z,6.12
2023-02-14T15:14:31.776Z,6.01
2023-02-14T15:18:34.882Z,5.88
2023-02-14T15:22:44.519Z,5.74
2023-02-14T15:26:51.614Z,5.63
2023-02-14T15:31:02.838Z,5.54
2023-02-14T15:35:08.522Z,5.44
2023-02-14T15:39:17.589Z,5.35
2023-02-14T15:43:30.183Z,5.28
2023-02-14T15:47:33.343Z,5.19
2023-02-14T15:51:36.789Z,5.10
2023-02-14T15:55:43.664Z,5.04
2023-02-14T15:59:48.671Z,4.98
2023-02-14T16:03:57.518Z,4.92
2023-02-14T16:08:05.329Z,4.85
2023-02-14T16:12:30.803Z,4.75
2023-02-14T16:16:57.942Z,4.65
2023-02-14T16:21:15.642Z,4.56
2023-02-14T16:25:18.984Z,4.48
2023-02-14T16:29:23.646Z,4.37
2023-02-14T16:33:28.462Z,4.30
2023-02-14T16:37:33.590Z,4.24
2023-02-14T16:41:36.637Z,4.23
2023-02-14T16:45:41.368Z,4.22
2023-02-14T16:49:44.273Z,4.20
2023-02-14T16:53:48.150Z,4.19
2023-02-14T16:57:53.143Z,4.18
2023-02-14T17:01:59.645Z,4.18
2023-02-14T17:06:04.007Z,4.14
2023-02-14T17:10:11.418Z,4.13
2023-02-14T17:14:19.590Z,4.07
2023-02-14T17:18:26.119Z,4.02
2023-02-14T17:22:29.039Z,3.87
2023-02-14T17:26:34.462Z,3.90
2023-02-14T17:30:37.759Z,3.86
2023-02-14T17:34:42.310Z,3.85
2023-02-14T17:38:45.437Z,3.82
2023-02-14T17:42:48.650Z,3.81
2023-02-14T17:46:53.416Z,3.80
2023-02-14T17:50:58.295Z,3.77
2023-02-14T17:55:02.067Z,3.75
2023-02-14T17:59:05.528Z,3.74
2023-02-14T18:03:08.750Z,3.70
2023-02-14T18:07:13.356Z,3.68
2023-02-14T18:11:18.148Z,3.62
2023-02-14T18:15:21.274Z,3.61
2023-02-14T18:19:24.981Z,3.60
2023-02-14T18:23:30.752Z,3.59
2023-02-14T18:27:33.918Z,3.60
2023-02-14T18:31:38.452Z,3.62
2023-02-14T18:35:43.332Z,3.62
2023-02-14T18:39:47.878Z,3.65
2023-02-14T18:43:51.261Z,3.68
2023-02-14T18:47:55.083Z,3.71
2023-02-14T18:51:58.843Z,3.71
2023-02-14T18:56:07.420Z,3.72
2023-02-14T19:00:12.113Z,3.71
2023-02-14T19:04:17.615Z,3.69
2023-02-14T19:08:20.994Z,3.71
2023-02-14T19:12:29.130Z,3.70
2023-02-14T19:16:37.345Z,3.69
2023-02-14T19:20:43.827Z,3.68
2023-02-14T19:24:46.919Z,3.67
2023-02-14T19:28:56.541Z,3.66
2023-02-14T19:32:59.594Z,3.66
2023-02-14T19:37:02.701Z,3.66
2023-02-14T19:41:05.575Z,3.67
2023-02-14T19:45:10.611Z,3.68
2023-02-14T19:49:17.018Z,3.68
2023-02-14T19:53:19.935Z,3.68
2023-02-14T19:57:23.476Z,3.68
2023-02-14T20:01:32.434Z,3.66
2023-02-14T20:05:38.802Z,3.65
2023-02-14T20:09:41.812Z,3.64
2023-02-14T20:13:46.231Z,3.63
2023-02-14T20:17:50.505Z,3.62
2023-02-14T20:21:57.323Z,3.61
2023-02-14T20:26:00.472Z,3.60
2023-02-14T20:30:04.206Z,3.62
2023-02-14T20:34:08.897Z,3.62
2023-02-14T20:38:12.264Z,3.59
2023-02-14T20:42:16.141Z,3.56
2023-02-14T20:46:19.284Z,3.52
2023-02-14T20:50:24.404Z,3.49
2023-02-14T20:54:30.107Z,3.48
2023-02-14T20:58:35.859Z,3.47
2023-02-14T21:02:38.782Z,3.47
2023-02-14T21:06:43.369Z,3.47
2023-02-14T21:10:47.387Z,3.47
2023-02-14T21:14:51.086Z,3.47
2023-02-14T21:18:59.588Z,3.45
2023-02-14T21:23:04.320Z,3.45
2023-02-14T21:27:07.516Z,3.46
2023-02-14T21:31:12.723Z,3.47
2023-02-14T21:35:16.158Z,3.47
2023-02-14T21:39:25.518Z,3.49
2023-02-14T21:43:28.706Z,3.51
2023-02-14T21:47:31.592Z,3.52
2023-02-14T21:51:35.446Z,3.54
2023-02-14T21:55:42.893Z,3.55
2023-02-14T21:59:46.249Z,3.56
2023-02-14T22:03:50.506Z,3.57
2023-02-14T22:07:53.685Z,3.59
2023-02-14T22:12:01.426Z,3.62
2023-02-14T22:16:07.141Z,3.62
2023-02-14T22:20:11.739Z,3.65
2023-02-14T22:24:15.012Z,3.65
2023-02-14T22:28:19.592Z,3.66
2023-02-14T22:32:22.497Z,3.67
2023-02-14T22:36:26.016Z,3.69
2023-02-14T22:40:29.211Z,3.71
2023-02-14T22:44:34.217Z,3.73
2023-02-14T22:48:38.694Z,3.76
2023-02-14T22:52:42.085Z,3.80
2023-02-14T22:56:47.054Z,3.83
2023-02-14T23:00:51.671Z,3.86
2023-02-14T23:04:57.143Z,3.83
2023-02-14T23:09:00.692Z,3.83
2023-02-14T23:13:21.380Z,3.83
2023-02-14T23:17:40.029Z,3.82
2023-02-14T23:21:58.341Z,3.81
2023-02-14T23:26:03.679Z,3.82
2023-02-14T23:30:08.935Z,3.86
2023-02-14T23:34:13.754Z,3.90
2023-02-14T23:38:16.880Z,3.92
2023-02-14T23:42:20.316Z,3.96
2023-02-14T23:46:23.536Z,3.97
2023-02-14T23:50:27.900Z,4.02
2023-02-14T23:54:31.251Z,4.04
2023-02-14T23:58:34.421Z,4.07
